** WELKOM OP ONZE WEBSITE MET ACTUELE WEERDATA VANUIT IZEGEM **
Het weer levert geen direct gevaar op.    Er zijn geen waarschuwingen afgegeven.

Weercam te Izegem Meer informatie Weercam te Izegem


Lokaal brand risico:
FWI


Regionaal brand risico: Meer informatie


Steun ons initiatief via een kleine donatie!



METAR rapporten vliegvelden

   
EBOS - Oostende Airport, Belgium
Afstand tot: NW 39 km
Gewijzigd: 21-06-2019 01:50
Helder  
Helder  
   Wind: ZZW 11.1 km/h
Wind: ZZW 11.1 km/h
Temperatuur: 10°C
Voelt als: 8°C
Dauwpunt: 8°C
Vochtigheid: 88%
Barometer: 1017 hPa
Zicht: meer dan 10 km
Bewolking: Helder ft
EBOS 202350Z 21006KT CAVOK 10/08 Q1017 NOSIG
LFQQ - Lille/Lesquin, France
Afstand tot: Z 40 km
Gewijzigd: 21-06-2019 02:00
Helder  
Helder  
   Wind: ZZW 9.3 km/h
Wind: ZZW 9.3 km/h
Temperatuur: 11°C
Dauwpunt: 9°C
Vochtigheid: 88%
Barometer: 1017 hPa
Zicht: meer dan 10 km
Bewolking: Helder ft
LFQQ 210000Z AUTO 20005KT CAVOK 11/09 Q1017 NOSIG
EBFN - Koksijde (bel-Af, Belgium
Afstand tot: WNW 43 km
Gewijzigd: 21-06-2019 01:55
Helder  
Helder  
   Wind: ZZW 9.3 km/h
Wind: ZZW 9.3 km/h
Temperatuur: 11°C
Dauwpunt: 10°C
Vochtigheid: 94%
Barometer: 1017 hPa
Bewolking: Clear
Zicht: 8 km
Bewolking: Helder ft
EBFN 202355Z AUTO 21005KT 8000 NCD 11/10 Q1017 BLU
EBCV - Chievres Ab, Belgium
Afstand tot: ZO 59 km
Gewijzigd: 21-06-2019 01:55
Helder  
Helder  
   Wind: ZZW 9.3 km/h
Wind: ZZW 9.3 km/h
Temperatuur: 11°C
Dauwpunt: 9°C
Vochtigheid: 88%
Barometer: 1018 hPa
Bewolking: Clear
Zicht: meer dan 10 km
Bewolking: Helder ft
EBCV 202355Z AUTO 21005KT 9999 NCD 11/09 Q1018 BLU
EHFS - Vlissingen, Netherlands
Afstand tot: NNO 65 km
Gewijzigd: 21-06-2019 01:55
Helder  
Helder  
   Wind: ZW 25.9 km/h
Wind: ZW 25.9 km/h
Temperatuur: 13°C
Dauwpunt: 11°C
Vochtigheid: 88%
Barometer: 1016 hPa
Bewolking: Clear
Zicht: meer dan 10 km
Bewolking: Helder ft
EHFS 202355Z AUTO 23014KT 9999 NCD 13/11 Q1016 W///H///
EBBR - Brussels Nationa, Belgium
Afstand tot: O 91 km
Gewijzigd: 21-06-2019 01:50
Helder  
Helder  
   Wind: ZW 9.3 km/h
Wind: ZW 9.3 km/h
Temperatuur: 11°C
Dauwpunt: 9°C
Vochtigheid: 88%
Barometer: 1017 hPa
Zicht: meer dan 10 km
Bewolking: Helder ft
EBBR 202350Z 22005KT CAVOK 11/09 Q1017 NOSIG
EBAW - Antwerp/Deurne, Belgium
Afstand tot: ONO 94 km
Gewijzigd: 21-06-2019 01:50
Helder  
Helder  
   Wind: ZW 9.3 km/h
Wind: ZW 9.3 km/h
Temperatuur: 14°C
Dauwpunt: 9°C
Vochtigheid: 72%
Barometer: 1017 hPa
Zicht: meer dan 10 km
Bewolking: Helder ft
EBAW 202350Z AUTO 22005KT CAVOK 14/09 Q1017
EHWO - Woensdrecht Rnla, Netherlands
Afstand tot: NO 98 km
Gewijzigd: 21-06-2019 01:55
Helder  
Helder  
   Wind: ZW 9.3 km/h
Wind: ZW 9.3 km/h
Temperatuur: 13°C
Dauwpunt: 9°C
Vochtigheid: 77%
Barometer: 1016 hPa
Bewolking: Clear
Zicht: meer dan 10 km
Bewolking: Helder ft
EHWO 202355Z AUTO 23005KT 9999 NCD 13/09 Q1016 BLU
EBCI - Charleroi/Gossel, Belgium
Afstand tot: OZO 102 km
Gewijzigd: 21-06-2019 01:50
Helder  
Helder  
   Wind: ZW 13 km/h
Wind: ZW 13 km/h
Temperatuur: 11°C
Dauwpunt: 8°C
Vochtigheid: 82%
Barometer: 1018 hPa
Zicht: meer dan 10 km
Bewolking: Helder ft
EBCI 202350Z 23007KT CAVOK 11/08 Q1018 NOSIG

Script ontwikkeld door  Saratoga-weather.org Aangepast voor de template door  Weerstation Leuven